createdAt,value
2018-02-07T00:00:25.381Z,0
2018-02-07T00:01:22.613Z,0
2018-02-07T00:02:21.997Z,0
2018-02-07T00:03:22.231Z,0
2018-02-07T00:04:22.223Z,0
2018-02-07T00:05:22.567Z,0
2018-02-07T00:06:21.972Z,0
2018-02-07T00:07:22.436Z,0
2018-02-07T00:08:22.176Z,0
2018-02-07T00:09:22.154Z,0
2018-02-07T00:10:22.520Z,0
2018-02-07T00:11:21.892Z,0
2018-02-07T00:12:22.151Z,0
2018-02-07T00:13:22.354Z,0
2018-02-07T00:14:22.284Z,0
2018-02-07T00:15:23.147Z,0
2018-02-07T00:16:21.824Z,0
2018-02-07T00:17:22.059Z,0
2018-02-07T00:18:21.800Z,0
2018-02-07T00:19:21.540Z,0
2018-02-07T00:20:22.597Z,0
2018-02-07T00:21:22.017Z,0
2018-02-07T00:22:22.244Z,0
2018-02-07T00:23:23.430Z,0
2018-02-07T00:24:21.970Z,0
2018-02-07T00:25:22.321Z,0
2018-02-07T00:26:22.217Z,0
2018-02-07T00:27:22.190Z,0
2018-02-07T00:28:21.679Z,0
2018-02-07T00:29:21.913Z,0
2018-02-07T00:30:22.302Z,0
2018-02-07T00:31:24.835Z,0
2018-02-07T00:32:21.877Z,0
2018-02-07T00:33:21.357Z,0
2018-02-07T00:34:21.853Z,0
2018-02-07T00:35:21.543Z,0
2018-02-07T00:36:21.572Z,0
2018-02-07T00:37:21.817Z,0
2018-02-07T00:38:21.301Z,0
2018-02-07T00:39:22.052Z,0
2018-02-07T00:40:22.495Z,0
2018-02-07T00:41:21.513Z,0
2018-02-07T00:42:22.029Z,0
2018-02-07T00:43:21.752Z,0
2018-02-07T00:44:21.743Z,0
2018-02-07T00:45:22.291Z,0
2018-02-07T00:46:21.506Z,0
2018-02-07T00:47:21.196Z,0
2018-02-07T00:48:21.426Z,0
2018-02-07T00:49:21.721Z,0
2018-02-07T00:50:22.156Z,0
2018-02-07T00:51:21.896Z,0
2018-02-07T00:52:21.383Z,0
2018-02-07T00:53:21.373Z,0
2018-02-07T00:54:21.366Z,0
2018-02-07T00:55:22.589Z,0
2018-02-07T00:56:21.333Z,0
2018-02-07T00:57:21.589Z,0
2018-02-07T00:58:21.633Z,0
2018-02-07T00:59:21.306Z,0
2018-02-07T01:00:21.992Z,0
2018-02-07T01:01:23.321Z,0
2018-02-07T01:02:21.268Z,0
2018-02-07T01:03:21.497Z,0
2018-02-07T01:04:21.739Z,0
2018-02-07T01:05:21.451Z,0
2018-02-07T01:06:21.476Z,0
2018-02-07T01:07:21.196Z,0
2018-02-07T01:08:21.437Z,0
2018-02-07T01:09:21.427Z,0
2018-02-07T01:10:21.122Z,0
2018-02-07T01:11:21.153Z,0
2018-02-07T01:12:21.387Z,0
2018-02-07T01:13:21.128Z,0
2018-02-07T01:14:21.366Z,0
2018-02-07T01:15:21.451Z,0
2018-02-07T01:16:21.336Z,0
2018-02-07T01:17:21.074Z,0
2018-02-07T01:18:21.068Z,0
2018-02-07T01:19:21.553Z,0
2018-02-07T01:20:21.904Z,0
2018-02-07T01:21:21.410Z,0
2018-02-07T01:22:22.353Z,0
2018-02-07T01:23:21.266Z,0
2018-02-07T01:24:21.240Z,0
2018-02-07T01:25:21.633Z,0
2018-02-07T01:26:21.217Z,0
2018-02-07T01:27:20.965Z,0
2018-02-07T01:28:20.952Z,0
2018-02-07T01:29:21.433Z,0
2018-02-07T01:30:21.455Z,0
2018-02-07T01:31:23.213Z,0
2018-02-07T01:32:21.140Z,0
2018-02-07T01:33:20.877Z,0
2018-02-07T01:34:20.867Z,0
2018-02-07T01:35:21.524Z,0
2018-02-07T01:36:21.351Z,0
2018-02-07T01:37:21.079Z,0
2018-02-07T01:38:20.826Z,0
2018-02-07T01:39:21.542Z,0
2018-02-07T01:40:21.958Z,0
2018-02-07T01:41:21.031Z,0
2018-02-07T01:42:20.516Z,0
2018-02-07T01:43:21.007Z,0
2018-02-07T01:44:20.743Z,0
2018-02-07T01:45:21.466Z,0
2018-02-07T01:46:20.728Z,0
2018-02-07T01:47:21.034Z,0
2018-02-07T01:48:21.205Z,0
2018-02-07T01:49:21.205Z,0
2018-02-07T01:50:21.553Z,0
2018-02-07T01:51:20.912Z,0
2018-02-07T01:52:21.200Z,0
2018-02-07T01:53:20.646Z,0
2018-02-07T01:54:20.627Z,0
2018-02-07T01:55:21.344Z,0
2018-02-07T01:56:20.345Z,0
2018-02-07T01:57:20.846Z,0
2018-02-07T01:58:21.074Z,0
2018-02-07T01:59:21.062Z,0
2018-02-07T02:00:21.476Z,0
2018-02-07T02:01:21.052Z,0
2018-02-07T02:02:23.743Z,0
2018-02-07T02:03:21.033Z,0
2018-02-07T02:04:21.008Z,0
2018-02-07T02:05:20.544Z,0
2018-02-07T02:06:20.477Z,0
2018-02-07T02:07:20.463Z,0
2018-02-07T02:08:20.447Z,0
2018-02-07T02:09:20.950Z,0
2018-02-07T02:10:20.894Z,0
2018-02-07T02:11:20.659Z,0
2018-02-07T02:12:20.661Z,0
2018-02-07T02:13:20.386Z,0
2018-02-07T02:14:20.880Z,0
2018-02-07T02:15:21.044Z,0
2018-02-07T02:16:20.101Z,0
2018-02-07T02:17:20.885Z,0
2018-02-07T02:18:20.828Z,0
2018-02-07T02:19:20.567Z,0
2018-02-07T02:20:21.484Z,0
2018-02-07T02:21:20.538Z,0
2018-02-07T02:22:20.540Z,0
2018-02-07T02:23:20.521Z,0
2018-02-07T02:24:20.512Z,0
2018-02-07T02:25:21.771Z,0
2018-02-07T02:26:20.731Z,0
2018-02-07T02:27:20.467Z,0
2018-02-07T02:28:20.198Z,0
2018-02-07T02:29:20.196Z,0
2018-02-07T02:30:20.726Z,0
2018-02-07T02:31:20.168Z,0
2018-02-07T02:32:21.412Z,0
2018-02-07T02:33:20.405Z,0
2018-02-07T02:34:20.646Z,0
2018-02-07T02:35:20.644Z,0
2018-02-07T02:36:20.362Z,0
2018-02-07T02:37:20.348Z,0
2018-02-07T02:38:20.586Z,0
2018-02-07T02:39:20.325Z,0
2018-02-07T02:40:20.162Z,0
2018-02-07T02:41:20.300Z,0
2018-02-07T02:42:20.535Z,0
2018-02-07T02:43:20.521Z,0
2018-02-07T02:44:20.000Z,0
2018-02-07T02:45:20.787Z,0
2018-02-07T02:46:20.246Z,0
2018-02-07T02:47:21.020Z,0
2018-02-07T02:48:20.206Z,0
2018-02-07T02:49:20.199Z,0
2018-02-07T02:50:20.699Z,0
2018-02-07T02:51:20.187Z,0
2018-02-07T02:52:19.902Z,0
2018-02-07T02:53:19.891Z,0
2018-02-07T02:54:20.149Z,0
2018-02-07T02:55:21.542Z,0
2018-02-07T02:56:20.364Z,0
2018-02-07T02:57:19.844Z,0
2018-02-07T02:58:20.348Z,0
2018-02-07T02:59:20.070Z,0
2018-02-07T03:00:21.193Z,0
2018-02-07T03:01:20.297Z,0
2018-02-07T03:02:20.030Z,0
2018-02-07T03:03:20.015Z,0
2018-02-07T03:04:20.004Z,0
2018-02-07T03:05:20.872Z,0
2018-02-07T03:06:19.980Z,0
2018-02-07T03:07:19.975Z,0
2018-02-07T03:08:19.951Z,0
2018-02-07T03:09:19.957Z,0
2018-02-07T03:10:20.653Z,0
2018-02-07T03:11:19.668Z,0
2018-02-07T03:12:20.157Z,0
2018-02-07T03:13:19.897Z,0
2018-02-07T03:14:19.880Z,0
2018-02-07T03:15:20.230Z,0
2018-02-07T03:16:19.849Z,0
2018-02-07T03:17:19.835Z,0
2018-02-07T03:18:20.079Z,0
2018-02-07T03:19:20.061Z,0
2018-02-07T03:20:20.871Z,0
2018-02-07T03:21:19.548Z,0
2018-02-07T03:22:19.792Z,0
2018-02-07T03:23:20.027Z,0
2018-02-07T03:24:19.757Z,0
2018-02-07T03:25:20.427Z,0
2018-02-07T03:26:19.735Z,0
2018-02-07T03:27:19.966Z,0
2018-02-07T03:28:19.447Z,0
2018-02-07T03:29:19.445Z,0
2018-02-07T03:30:20.804Z,0
2018-02-07T03:31:19.943Z,0
2018-02-07T03:32:19.416Z,0
2018-02-07T03:33:20.692Z,0
2018-02-07T03:34:19.625Z,0
2018-02-07T03:35:20.131Z,0
2018-02-07T03:36:19.369Z,0
2018-02-07T03:37:19.342Z,0
2018-02-07T03:38:19.330Z,0
2018-02-07T03:39:19.568Z,0
2018-02-07T03:40:20.248Z,0
2018-02-07T03:41:19.567Z,0
2018-02-07T03:42:19.775Z,0
2018-02-07T03:43:19.760Z,0
2018-02-07T03:44:19.514Z,0
2018-02-07T03:45:20.457Z,0
2018-02-07T03:46:19.258Z,0
2018-02-07T03:47:19.493Z,0
2018-02-07T03:48:19.078Z,0
2018-02-07T03:49:19.447Z,0
2018-02-07T03:50:20.358Z,0
2018-02-07T03:51:19.677Z,0
2018-02-07T03:52:19.404Z,0
2018-02-07T03:53:19.391Z,0
2018-02-07T03:54:19.636Z,0
2018-02-07T03:55:20.821Z,0
2018-02-07T03:56:19.098Z,0
2018-02-07T03:57:19.596Z,0
2018-02-07T03:58:19.582Z,0
2018-02-07T03:59:19.580Z,0
2018-02-07T04:00:21.445Z,0
2018-02-07T04:01:19.294Z,0
2018-02-07T04:02:19.533Z,0
2018-02-07T04:03:19.516Z,0
2018-02-07T04:04:19.248Z,0
2018-02-07T04:05:20.742Z,0
2018-02-07T04:06:18.721Z,0
2018-02-07T04:07:19.476Z,0
2018-02-07T04:08:18.697Z,0
2018-02-07T04:09:18.958Z,0
2018-02-07T04:10:20.527Z,0
2018-02-07T04:11:18.910Z,0
2018-02-07T04:12:18.899Z,0
2018-02-07T04:13:19.391Z,0
2018-02-07T04:14:19.374Z,0
2018-02-07T04:15:19.753Z,0
2018-02-07T04:16:19.362Z,0
2018-02-07T04:17:18.836Z,0
2018-02-07T04:18:21.179Z,0
2018-02-07T04:19:19.312Z,0
2018-02-07T04:20:20.304Z,0
2018-02-07T04:21:19.307Z,0
2018-02-07T04:22:19.024Z,0
2018-02-07T04:23:19.015Z,0
2018-02-07T04:24:19.270Z,0
2018-02-07T04:25:20.750Z,0
2018-02-07T04:26:19.237Z,0
2018-02-07T04:27:18.711Z,0
2018-02-07T04:28:18.694Z,0
2018-02-07T04:29:18.987Z,0
2018-02-07T04:30:20.539Z,0
2018-02-07T04:31:19.161Z,0
2018-02-07T04:32:18.650Z,0
2018-02-07T04:33:18.895Z,0
2018-02-07T04:34:19.775Z,0
2018-02-07T04:35:19.947Z,0
2018-02-07T04:36:18.596Z,0
2018-02-07T04:37:19.083Z,0
2018-02-07T04:38:18.821Z,0
2018-02-07T04:39:19.059Z,0
2018-02-07T04:40:19.894Z,0
2018-02-07T04:41:18.791Z,0
2018-02-07T04:42:18.770Z,0
2018-02-07T04:43:18.771Z,0
2018-02-07T04:44:18.756Z,0
2018-02-07T04:45:20.359Z,0
2018-02-07T04:46:18.774Z,0
2018-02-07T04:47:18.706Z,0
2018-02-07T04:48:18.701Z,0
2018-02-07T04:49:22.389Z,0
2018-02-07T04:50:19.736Z,0
2018-02-07T04:51:18.919Z,0
2018-02-07T04:52:18.681Z,0
2018-02-07T04:53:18.879Z,0
2018-02-07T04:54:18.882Z,0
2018-02-07T04:55:19.748Z,0
2018-02-07T04:56:18.858Z,0
2018-02-07T04:57:18.837Z,0
2018-02-07T04:58:18.583Z,0
2018-02-07T04:59:19.118Z,0
2018-02-07T05:00:19.891Z,0
2018-02-07T05:01:18.526Z,0
2018-02-07T05:02:18.767Z,0
2018-02-07T05:03:18.750Z,0
2018-02-07T05:04:18.747Z,0
2018-02-07T05:05:19.569Z,0
2018-02-07T05:06:18.219Z,0
2018-02-07T05:07:18.717Z,0
2018-02-07T05:08:18.471Z,0
2018-02-07T05:09:18.432Z,0
2018-02-07T05:10:20.154Z,0
2018-02-07T05:11:18.435Z,0
2018-02-07T05:12:18.643Z,0
2018-02-07T05:13:18.626Z,0
2018-02-07T05:14:18.112Z,0
2018-02-07T05:15:20.376Z,0
2018-02-07T05:16:18.340Z,0
2018-02-07T05:17:18.322Z,0
2018-02-07T05:18:18.574Z,0
2018-02-07T05:19:18.552Z,0
2018-02-07T05:20:19.917Z,0
2018-02-07T05:21:18.278Z,0
2018-02-07T05:22:18.282Z,0
2018-02-07T05:23:18.499Z,0
2018-02-07T05:24:18.486Z,0
2018-02-07T05:25:19.225Z,0
2018-02-07T05:26:18.468Z,0
2018-02-07T05:27:18.213Z,0
2018-02-07T05:28:18.186Z,0
2018-02-07T05:29:17.934Z,0
2018-02-07T05:30:19.331Z,0
2018-02-07T05:31:18.408Z,0
2018-02-07T05:32:18.135Z,0
2018-02-07T05:33:17.625Z,0
2018-02-07T05:34:17.871Z,0
2018-02-07T05:35:22.078Z,0
2018-02-07T05:36:17.829Z,0
2018-02-07T05:37:18.095Z,0
2018-02-07T05:38:18.064Z,0
2018-02-07T05:39:17.848Z,0
2018-02-07T05:40:19.998Z,0
2018-02-07T05:41:17.776Z,0
2018-02-07T05:42:17.766Z,0
2018-02-07T05:43:18.262Z,0
2018-02-07T05:44:17.734Z,0
2018-02-07T05:45:19.452Z,0
2018-02-07T05:46:17.957Z,0
2018-02-07T05:47:18.201Z,0
2018-02-07T05:48:17.687Z,0
2018-02-07T05:49:17.666Z,0
2018-02-07T05:50:18.940Z,0
2018-02-07T05:51:17.644Z,0
2018-02-07T05:52:17.883Z,0
2018-02-07T05:53:17.369Z,0
2018-02-07T05:54:17.603Z,0
2018-02-07T05:55:18.435Z,0
2018-02-07T05:56:18.384Z,0
2018-02-07T05:57:17.815Z,0
2018-02-07T05:58:17.305Z,0
2018-02-07T05:59:17.798Z,0
2018-02-07T06:00:18.611Z,0
2018-02-07T06:01:17.816Z,0
2018-02-07T06:02:18.012Z,0
2018-02-07T06:03:17.755Z,0
2018-02-07T06:04:17.476Z,0
2018-02-07T06:05:19.311Z,0
2018-02-07T06:06:20.955Z,0
2018-02-07T06:07:17.434Z,0
2018-02-07T06:08:17.423Z,0
2018-02-07T06:09:17.675Z,0
2018-02-07T06:10:18.976Z,0
2018-02-07T06:11:17.640Z,0
2018-02-07T06:12:17.880Z,0
2018-02-07T06:13:17.610Z,0
2018-02-07T06:14:17.356Z,4
2018-02-07T06:22:50.653Z,4
2018-02-07T06:23:49.292Z,8
2018-02-07T06:24:49.772Z,8
2018-02-07T06:25:49.755Z,8
2018-02-07T06:26:49.739Z,12
2018-02-07T06:27:49.791Z,12
2018-02-07T06:28:49.462Z,12
2018-02-07T06:29:49.453Z,16
2018-02-07T06:30:49.429Z,20
2018-02-07T06:31:49.699Z,20
2018-02-07T06:32:49.668Z,28
2018-02-07T06:33:49.394Z,32
2018-02-07T06:34:49.637Z,32
2018-02-07T06:35:49.396Z,40
2018-02-07T06:36:49.377Z,44
2018-02-07T06:37:50.682Z,52
2018-02-07T06:38:48.817Z,56
2018-02-07T06:39:49.575Z,60
2018-02-07T06:40:49.300Z,72
2018-02-07T06:41:49.277Z,80
2018-02-07T06:42:49.529Z,88
2018-02-07T06:43:49.527Z,96
2018-02-07T06:44:49.277Z,104
2018-02-07T06:45:48.978Z,112
2018-02-07T06:46:48.964Z,124
2018-02-07T06:47:49.455Z,132
2018-02-07T06:48:49.205Z,144
2018-02-07T06:49:49.188Z,156
2018-02-07T06:50:49.166Z,168
2018-02-07T06:51:49.398Z,180
2018-02-07T06:52:49.447Z,196
2018-02-07T06:53:49.129Z,212
2018-02-07T06:54:49.360Z,228
2018-02-07T06:55:49.112Z,244
2018-02-07T06:56:49.110Z,260
2018-02-07T06:57:48.820Z,276
2018-02-07T06:58:49.326Z,292
2018-02-07T06:59:48.795Z,308
2018-02-07T07:00:49.054Z,324
2018-02-07T07:01:49.055Z,336
2018-02-07T07:02:48.763Z,356
2018-02-07T07:03:49.248Z,368
2018-02-07T07:04:49.253Z,388
2018-02-07T07:05:49.231Z,404
2018-02-07T07:06:48.463Z,424
2018-02-07T07:07:48.708Z,444
2018-02-07T07:08:51.093Z,464
2018-02-07T07:09:48.677Z,484
2018-02-07T07:10:48.659Z,504
2018-02-07T07:11:49.157Z,524
2018-02-07T07:12:48.887Z,544
2018-02-07T07:13:48.886Z,560
2018-02-07T07:14:48.885Z,584
2018-02-07T07:15:48.859Z,604
2018-02-07T07:16:48.838Z,624
2018-02-07T07:17:49.079Z,656
2018-02-07T07:18:48.838Z,668
2018-02-07T07:19:48.819Z,688
2018-02-07T07:20:48.788Z,700
2018-02-07T07:21:48.277Z,716
2018-02-07T07:22:48.770Z,736
2018-02-07T07:23:48.766Z,748
2018-02-07T07:24:48.750Z,764
2018-02-07T07:25:48.730Z,780
2018-02-07T07:26:48.483Z,792
2018-02-07T07:27:48.726Z,812
2018-02-07T07:28:48.451Z,832
2018-02-07T07:29:48.952Z,840
2018-02-07T07:30:48.675Z,844
2018-02-07T07:31:48.668Z,860
2018-02-07T07:32:48.660Z,872
2018-02-07T07:33:48.890Z,892
2018-02-07T07:34:48.366Z,912
2018-02-07T07:35:48.367Z,924
2018-02-07T07:36:48.598Z,944
2018-02-07T07:37:48.602Z,964
2018-02-07T07:38:52.571Z,984
2018-02-07T07:39:48.568Z,1012
2018-02-07T07:40:48.797Z,1044
2018-02-07T07:41:48.031Z,1076
2018-02-07T07:42:48.528Z,1104
2018-02-07T07:43:48.511Z,1132
2018-02-07T07:44:48.499Z,1168
2018-02-07T07:45:48.485Z,1200
2018-02-07T07:46:48.729Z,1236
2018-02-07T07:47:48.467Z,1272
2018-02-07T07:48:48.456Z,1296
2018-02-07T07:49:48.480Z,1328
2018-02-07T07:50:48.438Z,1348
2018-02-07T07:51:48.699Z,1372
2018-02-07T07:52:48.398Z,1400
2018-02-07T07:53:48.400Z,1428
2018-02-07T07:54:48.384Z,1460
2018-02-07T07:55:48.367Z,1488
2018-02-07T07:56:48.107Z,1508
2018-02-07T07:57:47.850Z,1524
2018-02-07T07:58:48.335Z,1544
2018-02-07T07:59:48.065Z,1564
2018-02-07T08:00:48.053Z,1580
2018-02-07T08:01:47.792Z,1608
2018-02-07T08:02:48.286Z,1636
2018-02-07T08:03:48.027Z,1660
2018-02-07T08:04:48.012Z,1692
2018-02-07T08:05:48.246Z,1740
2018-02-07T08:06:47.995Z,1796
2018-02-07T08:07:48.480Z,1852
2018-02-07T08:08:47.708Z,1896
2018-02-07T08:09:48.409Z,1948
2018-02-07T08:10:48.453Z,1992
2018-02-07T08:11:48.177Z,2048
2018-02-07T08:12:48.418Z,2092
2018-02-07T08:13:48.153Z,2144
2018-02-07T08:14:48.155Z,2188
2018-02-07T08:15:48.127Z,2252
2018-02-07T08:16:48.774Z,2324
2018-02-07T08:17:48.108Z,2400
2018-02-07T08:18:48.349Z,2476
2018-02-07T08:19:47.843Z,2548
2018-02-07T08:20:48.111Z,2604
2018-02-07T08:21:47.820Z,2672
2018-02-07T08:22:47.805Z,2736
2018-02-07T08:23:47.802Z,2804
2018-02-07T08:24:52.589Z,2924
2018-02-07T08:25:48.263Z,2996
2018-02-07T08:26:48.255Z,3076
2018-02-07T08:27:47.755Z,3184
2018-02-07T08:28:47.785Z,3288
2018-02-07T08:29:47.969Z,3396
2018-02-07T08:30:47.707Z,3500
2018-02-07T08:31:47.948Z,3616
2018-02-07T08:32:47.708Z,3704
2018-02-07T08:33:47.430Z,3732
2018-02-07T08:34:47.659Z,3732
2018-02-07T08:35:47.426Z,3760
2018-02-07T08:36:47.890Z,3804
2018-02-07T08:37:48.141Z,3856
2018-02-07T08:38:47.616Z,3916
2018-02-07T08:39:49.158Z,3972
2018-02-07T08:40:47.596Z,4040
2018-02-07T08:41:47.840Z,4076
2018-02-07T08:42:47.580Z,4072
2018-02-07T08:43:47.820Z,4084
2018-02-07T08:44:47.555Z,4084
2018-02-07T08:45:48.051Z,4092
2018-02-07T08:46:47.791Z,4140
2018-02-07T08:47:47.791Z,4172
2018-02-07T08:48:47.261Z,4180
2018-02-07T08:49:47.760Z,4176
2018-02-07T08:50:47.760Z,4188
2018-02-07T08:51:47.982Z,4208
2018-02-07T08:52:47.750Z,4232
2018-02-07T08:53:47.961Z,4256
2018-02-07T08:54:47.711Z,4328
2018-02-07T08:55:47.951Z,4360
2018-02-07T08:56:47.688Z,4416
2018-02-07T08:57:47.672Z,4504
2018-02-07T08:58:47.914Z,4572
2018-02-07T08:59:47.650Z,4620
2018-02-07T09:00:48.337Z,4648
2018-02-07T09:01:47.903Z,4692
2018-02-07T09:02:47.623Z,4728
2018-02-07T09:03:47.863Z,4744
2018-02-07T09:04:47.856Z,4772
2018-02-07T09:05:47.610Z,4840
2018-02-07T09:06:47.325Z,4892
2018-02-07T09:07:47.830Z,4984
2018-02-07T09:08:47.560Z,5028
2018-02-07T09:09:47.314Z,5028
2018-02-07T09:10:47.047Z,5024
2018-02-07T09:11:47.277Z,5044
2018-02-07T09:12:47.524Z,5088
2018-02-07T09:13:48.159Z,5140
2018-02-07T09:14:47.533Z,5160
2018-02-07T09:15:47.486Z,5148
2018-02-07T09:16:47.729Z,5156
2018-02-07T09:17:47.724Z,5172
2018-02-07T09:18:47.712Z,5212
2018-02-07T09:19:47.693Z,5256
2018-02-07T09:20:47.450Z,5280
2018-02-07T09:21:47.428Z,5300
2018-02-07T09:22:47.668Z,5324
2018-02-07T09:23:47.428Z,5300
2018-02-07T09:24:49.699Z,5260
2018-02-07T09:25:46.901Z,5260
2018-02-07T09:26:47.382Z,5248
2018-02-07T09:27:46.866Z,5276
2018-02-07T09:28:47.370Z,5324
2018-02-07T09:29:47.596Z,5392
2018-02-07T09:30:47.340Z,5452
2018-02-07T09:31:47.078Z,5476
2018-02-07T09:32:47.067Z,5496
2018-02-07T09:33:47.566Z,5520
2018-02-07T09:34:47.589Z,5524
2018-02-07T09:35:46.800Z,5524
2018-02-07T09:36:47.039Z,5564
2018-02-07T09:37:47.530Z,5604
2018-02-07T09:38:47.022Z,5588
2018-02-07T09:39:47.506Z,5592
2018-02-07T09:40:47.236Z,5636
2018-02-07T09:41:46.986Z,5672
2018-02-07T09:42:47.237Z,5680
2018-02-07T09:43:46.965Z,5668
2018-02-07T09:44:47.464Z,5660
2018-02-07T09:45:47.465Z,5676
2018-02-07T09:46:47.447Z,5712
2018-02-07T09:47:47.421Z,5776
2018-02-07T09:48:47.415Z,5860
2018-02-07T09:49:47.415Z,5916
2018-02-07T09:50:46.900Z,6104
2018-02-07T09:51:47.233Z,6160
2018-02-07T09:52:47.123Z,6232
2018-02-07T09:53:46.870Z,6276
2018-02-07T09:54:47.363Z,6264
2018-02-07T09:55:47.095Z,6380
2018-02-07T09:56:46.843Z,6480
2018-02-07T09:57:47.412Z,6548
2018-02-07T09:58:47.077Z,6644
2018-02-07T09:59:47.315Z,6728
2018-02-07T10:00:47.301Z,6836
2018-02-07T10:01:47.313Z,6924
2018-02-07T10:02:47.294Z,7028
2018-02-07T10:03:47.319Z,7052
2018-02-07T10:04:47.020Z,7164
2018-02-07T10:05:47.011Z,7248
2018-02-07T10:06:46.999Z,7344
2018-02-07T10:07:46.742Z,7352
2018-02-07T10:08:46.982Z,7360
2018-02-07T10:09:46.973Z,7384
2018-02-07T10:10:46.965Z,7420
2018-02-07T10:11:46.950Z,7372
2018-02-07T10:12:46.977Z,7488
2018-02-07T10:13:46.936Z,7508
2018-02-07T10:14:46.934Z,7532
2018-02-07T10:15:46.926Z,7536
2018-02-07T10:16:46.919Z,7472
2018-02-07T10:17:46.905Z,7464
2018-02-07T10:18:46.894Z,7476
2018-02-07T10:19:46.628Z,7512
2018-02-07T10:20:46.377Z,7604
2018-02-07T10:21:46.862Z,7776
2018-02-07T10:22:47.142Z,7664
2018-02-07T10:23:47.110Z,7660
2018-02-07T10:53:54.050Z,7008
2018-02-07T10:54:52.431Z,6968
2018-02-07T10:55:51.905Z,6900
2018-02-07T10:56:52.447Z,6832
2018-02-07T10:57:52.140Z,6768
2018-02-07T10:58:52.119Z,6696
2018-02-07T10:59:52.372Z,6696
2018-02-07T11:00:52.353Z,6620
2018-02-07T11:01:52.081Z,6512
2018-02-07T11:02:52.074Z,6416
2018-02-07T11:03:52.324Z,6300
2018-02-07T11:04:52.053Z,6216
2018-02-07T11:05:52.047Z,6188
2018-02-07T11:06:52.281Z,6192
2018-02-07T11:07:52.015Z,6240
2018-02-07T11:08:51.760Z,6364
2018-02-07T11:09:52.018Z,6480
2018-02-07T11:10:52.248Z,6540
2018-02-07T11:11:51.990Z,6560
2018-02-07T11:12:51.976Z,6536
2018-02-07T11:13:51.985Z,6492
2018-02-07T11:14:51.951Z,6444
2018-02-07T11:15:51.959Z,6388
2018-02-07T11:16:51.955Z,6308
2018-02-07T11:17:51.668Z,6224
2018-02-07T11:18:52.173Z,6152
2018-02-07T11:19:51.954Z,6132
2018-02-07T11:20:51.643Z,6160
2018-02-07T11:21:52.153Z,6204
2018-02-07T11:22:51.631Z,6292
2018-02-07T11:23:55.322Z,6408
2018-02-07T11:24:51.611Z,6556
2018-02-07T11:25:52.104Z,6880
2018-02-07T11:26:52.089Z,7100
2018-02-07T11:27:51.576Z,7316
2018-02-07T11:28:51.827Z,7548
2018-02-07T11:29:51.816Z,7652
2018-02-07T11:30:52.061Z,7700
2018-02-07T11:31:51.807Z,7672
2018-02-07T11:32:51.528Z,7544
2018-02-07T11:33:51.777Z,7460
2018-02-07T11:34:51.768Z,7552
2018-02-07T11:35:52.006Z,7860
2018-02-07T11:36:53.322Z,7900
2018-02-07T11:37:51.736Z,7820
2018-02-07T11:38:52.527Z,7488
2018-02-07T11:39:51.994Z,7092
2018-02-07T11:40:51.714Z,6916
2018-02-07T11:41:51.711Z,6768
2018-02-07T11:42:51.695Z,6628
2018-02-07T11:43:51.443Z,6548
2018-02-07T11:44:51.684Z,6588
2018-02-07T11:45:51.943Z,6676
2018-02-07T11:46:51.666Z,6756
2018-02-07T11:47:51.657Z,6892
2018-02-07T11:48:51.654Z,7052
2018-02-07T11:49:51.890Z,7244
2018-02-07T11:50:51.651Z,7448
2018-02-07T11:51:51.631Z,7508
2018-02-07T11:52:51.622Z,7568
2018-02-07T11:53:51.632Z,7576
2018-02-07T11:54:51.097Z,7684
2018-02-07T11:55:51.847Z,7528
2018-02-07T11:56:51.838Z,7236
2018-02-07T11:57:51.321Z,7092
2018-02-07T11:58:51.572Z,7028
2018-02-07T11:59:51.822Z,6932
2018-02-07T12:00:51.814Z,6852
2018-02-07T12:01:51.538Z,6836
2018-02-07T12:02:51.540Z,6924
2018-02-07T12:03:51.527Z,6668
2018-02-07T12:04:51.535Z,6820
2018-02-07T12:05:51.767Z,6744
2018-02-07T12:06:51.268Z,6672
2018-02-07T12:07:51.499Z,6588
2018-02-07T12:08:51.787Z,6464
2018-02-07T12:09:51.735Z,6500
2018-02-07T12:10:51.483Z,6412
2018-02-07T12:11:51.466Z,6384
2018-02-07T12:12:51.455Z,6392
2018-02-07T12:13:51.456Z,6288
2018-02-07T12:14:51.690Z,6416
2018-02-07T12:15:51.456Z,6392
2018-02-07T12:16:51.673Z,6280
2018-02-07T12:17:51.174Z,6088
2018-02-07T12:18:51.415Z,5912
2018-02-07T12:19:51.155Z,5828
2018-02-07T12:20:51.678Z,5732
2018-02-07T12:21:51.393Z,5692
2018-02-07T12:22:51.636Z,5640
2018-02-07T12:23:50.876Z,5532
2018-02-07T12:24:54.818Z,5408
2018-02-07T12:25:51.615Z,5324
2018-02-07T12:26:51.343Z,5264
2018-02-07T12:27:51.340Z,5188
2018-02-07T12:28:51.587Z,5192
2018-02-07T12:29:51.326Z,5192
2018-02-07T12:30:51.331Z,5200
2018-02-07T12:31:51.562Z,5184
2018-02-07T12:32:51.557Z,5204
2018-02-07T12:33:51.546Z,5312
2018-02-07T12:34:51.286Z,5400
2018-02-07T12:35:51.283Z,5456
2018-02-07T12:36:51.015Z,5600
2018-02-07T12:37:51.518Z,5600
2018-02-07T12:38:51.008Z,5588
2018-02-07T12:39:53.348Z,5524
2018-02-07T12:40:51.242Z,5484
2018-02-07T12:41:51.297Z,5520
2018-02-07T12:42:50.976Z,5700
2018-02-07T12:43:51.471Z,5704
2018-02-07T12:44:51.461Z,5872
2018-02-07T12:45:51.467Z,6120
2018-02-07T12:46:51.191Z,6316
2018-02-07T12:47:51.179Z,6500
2018-02-07T12:48:50.919Z,6700
2018-02-07T12:49:51.163Z,6896
2018-02-07T12:50:51.412Z,7052
2018-02-07T12:51:51.417Z,7168
2018-02-07T12:52:51.154Z,7304
2018-02-07T12:53:51.136Z,7556
2018-02-07T12:54:51.379Z,7600
2018-02-07T12:55:51.138Z,7500
2018-02-07T12:56:51.105Z,7556
2018-02-07T12:57:50.847Z,7624
2018-02-07T12:58:51.106Z,7640
2018-02-07T12:59:51.084Z,7600
2018-02-07T13:00:50.840Z,7588
2018-02-07T13:01:51.067Z,7580
2018-02-07T13:02:51.321Z,7648
2018-02-07T13:03:51.060Z,7668
2018-02-07T13:04:50.795Z,7836
2018-02-07T13:05:50.792Z,8016
2018-02-07T13:06:51.095Z,8064
2018-02-07T13:07:51.026Z,7904
2018-02-07T13:08:51.021Z,7664
2018-02-07T13:09:51.007Z,7452
2018-02-07T13:10:51.301Z,7320
2018-02-07T13:11:50.754Z,7296
2018-02-07T13:12:50.753Z,7296
2018-02-07T13:13:51.234Z,7256
2018-02-07T13:14:51.016Z,7176
2018-02-07T13:15:50.763Z,7116
2018-02-07T13:16:50.806Z,7124
2018-02-07T13:17:50.458Z,7156
2018-02-07T13:18:51.206Z,7048
2018-02-07T13:19:51.192Z,6864
2018-02-07T13:20:51.195Z,6640
2018-02-07T13:21:50.919Z,6492
2018-02-07T13:22:51.171Z,6380
2018-02-07T13:23:50.909Z,6248
2018-02-07T13:24:50.899Z,6060
2018-02-07T13:25:51.452Z,5860
2018-02-07T13:26:50.887Z,5672
2018-02-07T13:27:50.885Z,5532
2018-02-07T13:28:50.874Z,5452
2018-02-07T13:29:50.860Z,5324
2018-02-07T13:30:50.873Z,5188
2018-02-07T13:31:50.853Z,5080
2018-02-07T13:32:50.837Z,4984
2018-02-07T13:33:50.825Z,4960
2018-02-07T13:34:50.828Z,4936
2018-02-07T13:35:50.809Z,4864
2018-02-07T13:36:50.562Z,4776
2018-02-07T13:37:50.801Z,4704
2018-02-07T13:38:50.540Z,4664
2018-02-07T13:39:51.034Z,4648
2018-02-07T13:40:51.037Z,4616
2018-02-07T13:41:51.024Z,4580
2018-02-07T13:42:50.755Z,4508
2018-02-07T13:43:50.239Z,4452
2018-02-07T13:44:50.740Z,4420
2018-02-07T13:45:50.990Z,4412
2018-02-07T13:46:50.726Z,4408
2018-02-07T13:47:50.725Z,4464
2018-02-07T13:48:50.703Z,4388
2018-02-07T13:49:50.697Z,4404
2018-02-07T13:50:50.939Z,4488
2018-02-07T13:51:50.439Z,4536
2018-02-07T13:52:50.933Z,4580
2018-02-07T13:53:50.415Z,4628
2018-02-07T13:54:50.426Z,4672
2018-02-07T13:55:50.843Z,4724
2018-02-07T13:56:50.387Z,4764
2018-02-07T13:57:50.878Z,4760
2018-02-07T13:58:50.888Z,4716
2018-02-07T13:59:50.876Z,4644
2018-02-07T14:00:50.607Z,4544
2018-02-07T14:01:50.356Z,4416
2018-02-07T14:02:50.641Z,4268
2018-02-07T14:03:50.330Z,4140
2018-02-07T14:04:50.841Z,4028
2018-02-07T14:05:50.597Z,3932
2018-02-07T14:06:50.569Z,3848
2018-02-07T14:07:50.061Z,3780
2018-02-07T14:08:50.820Z,3724
2018-02-07T14:09:50.794Z,3684
2018-02-07T14:10:50.278Z,3668
2018-02-07T14:11:50.512Z,3660
2018-02-07T14:12:50.646Z,3656
2018-02-07T14:13:50.504Z,3644
2018-02-07T14:14:50.508Z,3608
2018-02-07T14:15:50.219Z,3536
2018-02-07T14:16:50.473Z,3416
2018-02-07T14:17:50.716Z,3284
2018-02-07T14:18:50.195Z,3180
2018-02-07T14:19:50.185Z,3116
2018-02-07T14:20:50.434Z,3084
2018-02-07T14:21:50.419Z,3084
2018-02-07T14:22:50.477Z,3120
2018-02-07T14:23:50.401Z,3180
2018-02-07T14:24:50.147Z,3240
2018-02-07T14:25:50.396Z,3300
2018-02-07T14:26:50.372Z,3352
2018-02-07T14:27:50.624Z,3408
2018-02-07T14:28:50.630Z,3448
2018-02-07T14:29:50.672Z,3456
2018-02-07T14:30:50.343Z,3436
2018-02-07T14:31:50.328Z,3408
2018-02-07T14:32:50.078Z,3368
2018-02-07T14:33:50.314Z,3328
2018-02-07T14:34:50.345Z,3280
2018-02-07T14:35:50.048Z,3232